sensor_id;sensor_type;location;lat;lon;timestamp;temperature;humidity
19060;DHT22;9663;48.996;8.334;2023-06-10T00:00:50;22.90;33.90
19060;DHT22;9663;48.996;8.334;2023-06-10T00:03:16;22.90;34.00
19060;DHT22;9663;48.996;8.334;2023-06-10T00:05:43;22.90;34.10
19060;DHT22;9663;48.996;8.334;2023-06-10T00:08:08;22.80;34.10
19060;DHT22;9663;48.996;8.334;2023-06-10T00:10:37;22.80;34.30
19060;DHT22;9663;48.996;8.334;2023-06-10T00:13:07;22.80;34.60
19060;DHT22;9663;48.996;8.334;2023-06-10T00:15:37;22.70;34.90
19060;DHT22;9663;48.996;8.334;2023-06-10T00:18:03;22.70;34.70
19060;DHT22;9663;48.996;8.334;2023-06-10T00:20:30;22.70;34.70
19060;DHT22;9663;48.996;8.334;2023-06-10T00:22:57;22.60;34.80
19060;DHT22;9663;48.996;8.334;2023-06-10T00:25:24;22.60;34.90
19060;DHT22;9663;48.996;8.334;2023-06-10T00:27:51;22.50;35.00
19060;DHT22;9663;48.996;8.334;2023-06-10T00:30:17;22.50;35.00
19060;DHT22;9663;48.996;8.334;2023-06-10T00:32:42;22.50;35.10
19060;DHT22;9663;48.996;8.334;2023-06-10T00:35:08;22.50;35.20
19060;DHT22;9663;48.996;8.334;2023-06-10T00:37:34;22.40;35.30
19060;DHT22;9663;48.996;8.334;2023-06-10T00:40:04;22.40;35.40
19060;DHT22;9663;48.996;8.334;2023-06-10T00:42:30;22.40;35.50
19060;DHT22;9663;48.996;8.334;2023-06-10T00:44:56;22.20;35.50
19060;DHT22;9663;48.996;8.334;2023-06-10T00:47:22;22.30;35.60
19060;DHT22;9663;48.996;8.334;2023-06-10T00:49:49;22.30;35.70
19060;DHT22;9663;48.996;8.334;2023-06-10T00:52:17;22.30;36.00
19060;DHT22;9663;48.996;8.334;2023-06-10T00:54:45;22.30;36.00
19060;DHT22;9663;48.996;8.334;2023-06-10T00:57:12;22.20;36.00
19060;DHT22;9663;48.996;8.334;2023-06-10T00:59:44;22.20;36.20
19060;DHT22;9663;48.996;8.334;2023-06-10T01:02:13;22.20;36.40
19060;DHT22;9663;48.996;8.334;2023-06-10T01:04:39;22.20;36.30
19060;DHT22;9663;48.996;8.334;2023-06-10T01:07:25;22.20;36.40
19060;DHT22;9663;48.996;8.334;2023-06-10T01:10:19;22.10;37.30
19060;DHT22;9663;48.996;8.334;2023-06-10T01:13:05;22.10;37.00
19060;DHT22;9663;48.996;8.334;2023-06-10T01:15:34;22.10;37.30
19060;DHT22;9663;48.996;8.334;2023-06-10T01:18:03;22.10;36.60
19060;DHT22;9663;48.996;8.334;2023-06-10T01:20:31;22.10;36.90
19060;DHT22;9663;48.996;8.334;2023-06-10T01:22:59;22.00;37.00
19060;DHT22;9663;48.996;8.334;2023-06-10T01:25:27;22.00;37.00
19060;DHT22;9663;48.996;8.334;2023-06-10T01:28:04;22.00;37.10
19060;DHT22;9663;48.996;8.334;2023-06-10T01:34:00;21.90;38.30
19060;DHT22;9663;48.996;8.334;2023-06-10T01:36:30;21.90;37.20
19060;DHT22;9663;48.996;8.334;2023-06-10T01:38:58;21.90;37.40
19060;DHT22;9663;48.996;8.334;2023-06-10T01:41:25;21.80;37.50
19060;DHT22;9663;48.996;8.334;2023-06-10T01:43:51;21.80;37.50
19060;DHT22;9663;48.996;8.334;2023-06-10T01:46:16;21.70;37.50
19060;DHT22;9663;48.996;8.334;2023-06-10T01:48:46;21.70;38.30
19060;DHT22;9663;48.996;8.334;2023-06-10T01:51:12;21.70;37.80
19060;DHT22;9663;48.996;8.334;2023-06-10T01:53:38;21.70;37.90
19060;DHT22;9663;48.996;8.334;2023-06-10T01:56:04;21.60;37.90
19060;DHT22;9663;48.996;8.334;2023-06-10T01:58:29;21.60;38.00
19060;DHT22;9663;48.996;8.334;2023-06-10T02:00:55;21.60;38.10
19060;DHT22;9663;48.996;8.334;2023-06-10T02:03:21;21.50;38.20
19060;DHT22;9663;48.996;8.334;2023-06-10T02:05:47;21.50;38.30
19060;DHT22;9663;48.996;8.334;2023-06-10T02:08:12;21.50;38.40
19060;DHT22;9663;48.996;8.334;2023-06-10T02:10:38;21.40;38.40
19060;DHT22;9663;48.996;8.334;2023-06-10T02:13:04;21.40;38.60
19060;DHT22;9663;48.996;8.334;2023-06-10T02:15:30;21.30;38.60
19060;DHT22;9663;48.996;8.334;2023-06-10T02:17:55;21.30;38.60
19060;DHT22;9663;48.996;8.334;2023-06-10T02:20:21;21.30;38.80
19060;DHT22;9663;48.996;8.334;2023-06-10T02:22:47;21.20;38.80
19060;DHT22;9663;48.996;8.334;2023-06-10T02:25:13;21.10;38.90
19060;DHT22;9663;48.996;8.334;2023-06-10T02:27:39;21.10;39.00
19060;DHT22;9663;48.996;8.334;2023-06-10T02:30:05;21.00;39.00
19060;DHT22;9663;48.996;8.334;2023-06-10T02:32:31;21.00;39.20
19060;DHT22;9663;48.996;8.334;2023-06-10T02:34:57;20.90;39.20
19060;DHT22;9663;48.996;8.334;2023-06-10T02:37:23;20.90;39.40
19060;DHT22;9663;48.996;8.334;2023-06-10T02:39:48;20.80;39.40
19060;DHT22;9663;48.996;8.334;2023-06-10T02:42:14;20.80;39.60
19060;DHT22;9663;48.996;8.334;2023-06-10T02:44:40;20.70;39.60
19060;DHT22;9663;48.996;8.334;2023-06-10T02:47:05;20.70;39.80
19060;DHT22;9663;48.996;8.334;2023-06-10T02:49:31;20.70;39.90
19060;DHT22;9663;48.996;8.334;2023-06-10T02:51:57;20.60;40.00
19060;DHT22;9663;48.996;8.334;2023-06-10T02:54:25;20.60;40.00
19060;DHT22;9663;48.996;8.334;2023-06-10T02:56:52;20.60;40.40
19060;DHT22;9663;48.996;8.334;2023-06-10T02:59:18;20.60;40.30
19060;DHT22;9663;48.996;8.334;2023-06-10T03:01:46;20.60;40.40
19060;DHT22;9663;48.996;8.334;2023-06-10T03:04:12;20.60;40.50
19060;DHT22;9663;48.996;8.334;2023-06-10T03:06:39;20.50;40.50
19060;DHT22;9663;48.996;8.334;2023-06-10T03:09:06;20.50;40.60
19060;DHT22;9663;48.996;8.334;2023-06-10T03:11:35;20.50;40.60
19060;DHT22;9663;48.996;8.334;2023-06-10T03:14:00;20.50;40.70
19060;DHT22;9663;48.996;8.334;2023-06-10T03:16:26;20.40;40.70
19060;DHT22;9663;48.996;8.334;2023-06-10T03:18:52;20.40;40.80
19060;DHT22;9663;48.996;8.334;2023-06-10T03:21:18;20.40;40.90
19060;DHT22;9663;48.996;8.334;2023-06-10T03:23:45;20.30;41.00
19060;DHT22;9663;48.996;8.334;2023-06-10T03:26:11;20.30;41.10
19060;DHT22;9663;48.996;8.334;2023-06-10T03:28:38;20.30;41.90
19060;DHT22;9663;48.996;8.334;2023-06-10T03:31:03;20.30;41.40
19060;DHT22;9663;48.996;8.334;2023-06-10T03:33:29;20.20;41.40
19060;DHT22;9663;48.996;8.334;2023-06-10T03:35:55;20.20;41.40
19060;DHT22;9663;48.996;8.334;2023-06-10T03:38:21;20.20;41.60
19060;DHT22;9663;48.996;8.334;2023-06-10T03:40:47;20.20;41.60
19060;DHT22;9663;48.996;8.334;2023-06-10T03:43:12;20.10;41.70
19060;DHT22;9663;48.996;8.334;2023-06-10T03:45:38;20.10;41.80
19060;DHT22;9663;48.996;8.334;2023-06-10T03:48:04;20.10;41.80
19060;DHT22;9663;48.996;8.334;2023-06-10T03:50:31;20.10;41.90
19060;DHT22;9663;48.996;8.334;2023-06-10T03:52:57;20.10;42.10
19060;DHT22;9663;48.996;8.334;2023-06-10T03:55:23;20.00;42.10
19060;DHT22;9663;48.996;8.334;2023-06-10T03:57:49;20.10;42.20
19060;DHT22;9663;48.996;8.334;2023-06-10T04:00:16;20.00;42.20
19060;DHT22;9663;48.996;8.334;2023-06-10T04:02:43;20.00;42.40
19060;DHT22;9663;48.996;8.334;2023-06-10T04:05:15;20.00;42.40
19060;DHT22;9663;48.996;8.334;2023-06-10T04:07:42;20.10;42.50
19060;DHT22;9663;48.996;8.334;2023-06-10T04:10:10;20.10;42.60
19060;DHT22;9663;48.996;8.334;2023-06-10T04:12:37;20.10;42.60
19060;DHT22;9663;48.996;8.334;2023-06-10T04:15:04;20.10;42.60
19060;DHT22;9663;48.996;8.334;2023-06-10T04:17:30;20.10;42.70
19060;DHT22;9663;48.996;8.334;2023-06-10T04:19:56;20.20;42.70
19060;DHT22;9663;48.996;8.334;2023-06-10T04:22:24;20.20;42.80
19060;DHT22;9663;48.996;8.334;2023-06-10T04:24:49;20.20;42.80
19060;DHT22;9663;48.996;8.334;2023-06-10T04:27:15;20.20;42.80
19060;DHT22;9663;48.996;8.334;2023-06-10T04:29:41;20.20;42.80
19060;DHT22;9663;48.996;8.334;2023-06-10T04:32:07;20.30;42.90
19060;DHT22;9663;48.996;8.334;2023-06-10T04:34:33;20.30;42.90
19060;DHT22;9663;48.996;8.334;2023-06-10T04:36:59;20.40;43.00
19060;DHT22;9663;48.996;8.334;2023-06-10T04:39:25;20.40;42.90
19060;DHT22;9663;48.996;8.334;2023-06-10T04:41:51;20.50;43.00
19060;DHT22;9663;48.996;8.334;2023-06-10T04:44:17;20.50;43.00
19060;DHT22;9663;48.996;8.334;2023-06-10T04:46:44;20.60;43.00
19060;DHT22;9663;48.996;8.334;2023-06-10T04:49:11;20.70;43.00
19060;DHT22;9663;48.996;8.334;2023-06-10T04:51:39;20.70;43.00
19060;DHT22;9663;48.996;8.334;2023-06-10T04:54:05;20.70;42.90
19060;DHT22;9663;48.996;8.334;2023-06-10T04:56:31;20.80;43.00
19060;DHT22;9663;48.996;8.334;2023-06-10T04:59:00;20.90;43.10
19060;DHT22;9663;48.996;8.334;2023-06-10T05:01:26;21.00;43.30
19060;DHT22;9663;48.996;8.334;2023-06-10T05:03:52;21.00;43.00
19060;DHT22;9663;48.996;8.334;2023-06-10T05:06:18;21.10;43.00
19060;DHT22;9663;48.996;8.334;2023-06-10T05:08:44;21.20;43.00
19060;DHT22;9663;48.996;8.334;2023-06-10T05:11:09;21.20;43.00
19060;DHT22;9663;48.996;8.334;2023-06-10T05:13:35;21.30;43.00
19060;DHT22;9663;48.996;8.334;2023-06-10T05:16:01;21.40;43.00
19060;DHT22;9663;48.996;8.334;2023-06-10T05:18:27;21.50;42.90
19060;DHT22;9663;48.996;8.334;2023-06-10T05:20:52;21.60;42.90
19060;DHT22;9663;48.996;8.334;2023-06-10T05:23:19;21.60;42.80
19060;DHT22;9663;48.996;8.334;2023-06-10T05:25:45;21.70;42.70
19060;DHT22;9663;48.996;8.334;2023-06-10T05:28:11;21.80;42.70
19060;DHT22;9663;48.996;8.334;2023-06-10T05:30:37;21.80;42.70
19060;DHT22;9663;48.996;8.334;2023-06-10T05:33:04;22.00;42.80
19060;DHT22;9663;48.996;8.334;2023-06-10T05:35:30;22.00;42.70
19060;DHT22;9663;48.996;8.334;2023-06-10T05:37:56;22.10;42.70
19060;DHT22;9663;48.996;8.334;2023-06-10T05:40:22;22.20;42.60
19060;DHT22;9663;48.996;8.334;2023-06-10T05:42:48;22.30;42.60
19060;DHT22;9663;48.996;8.334;2023-06-10T05:45:14;22.30;42.50
19060;DHT22;9663;48.996;8.334;2023-06-10T05:47:40;22.30;42.40
19060;DHT22;9663;48.996;8.334;2023-06-10T05:50:06;22.50;42.50
19060;DHT22;9663;48.996;8.334;2023-06-10T05:52:34;22.50;42.40
19060;DHT22;9663;48.996;8.334;2023-06-10T05:55:01;22.60;42.40
19060;DHT22;9663;48.996;8.334;2023-06-10T05:57:27;22.60;42.30
19060;DHT22;9663;48.996;8.334;2023-06-10T05:59:53;22.70;42.40
19060;DHT22;9663;48.996;8.334;2023-06-10T06:02:19;22.70;42.30
19060;DHT22;9663;48.996;8.334;2023-06-10T06:04:44;22.80;42.30
19060;DHT22;9663;48.996;8.334;2023-06-10T06:07:10;22.90;42.30
19060;DHT22;9663;48.996;8.334;2023-06-10T06:09:36;23.00;42.30
19060;DHT22;9663;48.996;8.334;2023-06-10T06:12:01;23.00;42.30
19060;DHT22;9663;48.996;8.334;2023-06-10T06:14:30;23.10;42.30
19060;DHT22;9663;48.996;8.334;2023-06-10T06:16:57;23.20;42.30
19060;DHT22;9663;48.996;8.334;2023-06-10T06:19:22;23.30;42.20
19060;DHT22;9663;48.996;8.334;2023-06-10T06:21:48;23.40;42.10
19060;DHT22;9663;48.996;8.334;2023-06-10T06:24:15;23.50;42.10
19060;DHT22;9663;48.996;8.334;2023-06-10T06:26:44;23.50;42.10
19060;DHT22;9663;48.996;8.334;2023-06-10T06:29:10;23.60;42.20
19060;DHT22;9663;48.996;8.334;2023-06-10T06:31:36;23.70;42.00
19060;DHT22;9663;48.996;8.334;2023-06-10T06:34:02;23.80;41.90
19060;DHT22;9663;48.996;8.334;2023-06-10T06:36:27;23.90;41.80
19060;DHT22;9663;48.996;8.334;2023-06-10T06:38:53;23.90;41.80
19060;DHT22;9663;48.996;8.334;2023-06-10T06:41:19;24.00;41.90
19060;DHT22;9663;48.996;8.334;2023-06-10T06:43:44;24.20;41.90
19060;DHT22;9663;48.996;8.334;2023-06-10T06:46:10;24.20;41.80
19060;DHT22;9663;48.996;8.334;2023-06-10T06:48:36;24.30;41.70
19060;DHT22;9663;48.996;8.334;2023-06-10T06:51:01;24.40;41.60
19060;DHT22;9663;48.996;8.334;2023-06-10T06:53:27;24.50;41.70
19060;DHT22;9663;48.996;8.334;2023-06-10T06:55:53;24.50;41.70
19060;DHT22;9663;48.996;8.334;2023-06-10T06:58:19;24.70;41.70
19060;DHT22;9663;48.996;8.334;2023-06-10T07:00:44;24.80;41.70
19060;DHT22;9663;48.996;8.334;2023-06-10T07:03:10;24.90;41.50
19060;DHT22;9663;48.996;8.334;2023-06-10T07:05:36;25.00;41.50
19060;DHT22;9663;48.996;8.334;2023-06-10T07:08:03;25.10;41.50
19060;DHT22;9663;48.996;8.334;2023-06-10T07:10:28;25.20;41.40
19060;DHT22;9663;48.996;8.334;2023-06-10T07:12:54;25.30;41.40
19060;DHT22;9663;48.996;8.334;2023-06-10T07:15:20;25.30;41.30
19060;DHT22;9663;48.996;8.334;2023-06-10T07:17:46;25.40;41.30
19060;DHT22;9663;48.996;8.334;2023-06-10T07:20:12;25.50;41.20
19060;DHT22;9663;48.996;8.334;2023-06-10T07:22:38;25.60;41.30
19060;DHT22;9663;48.996;8.334;2023-06-10T07:25:07;25.80;41.30
19060;DHT22;9663;48.996;8.334;2023-06-10T07:27:33;25.90;41.80
19060;DHT22;9663;48.996;8.334;2023-06-10T07:29:59;26.00;41.00
19060;DHT22;9663;48.996;8.334;2023-06-10T07:32:26;26.10;40.90
19060;DHT22;9663;48.996;8.334;2023-06-10T07:34:52;26.20;40.90
19060;DHT22;9663;48.996;8.334;2023-06-10T07:37:18;26.20;40.80
19060;DHT22;9663;48.996;8.334;2023-06-10T07:39:45;26.30;40.70
19060;DHT22;9663;48.996;8.334;2023-06-10T07:42:10;26.40;40.80
19060;DHT22;9663;48.996;8.334;2023-06-10T07:44:36;26.50;40.70
19060;DHT22;9663;48.996;8.334;2023-06-10T07:47:02;26.60;40.70
19060;DHT22;9663;48.996;8.334;2023-06-10T07:49:27;26.80;40.70
19060;DHT22;9663;48.996;8.334;2023-06-10T07:51:56;26.90;40.40
19060;DHT22;9663;48.996;8.334;2023-06-10T07:54:22;27.00;40.50
19060;DHT22;9663;48.996;8.334;2023-06-10T07:56:48;27.10;40.40
19060;DHT22;9663;48.996;8.334;2023-06-10T07:59:14;27.20;40.40
19060;DHT22;9663;48.996;8.334;2023-06-10T08:01:40;27.30;40.30
19060;DHT22;9663;48.996;8.334;2023-06-10T08:04:06;27.40;40.20
19060;DHT22;9663;48.996;8.334;2023-06-10T08:06:32;27.60;40.20
19060;DHT22;9663;48.996;8.334;2023-06-10T08:08:58;27.60;40.70
19060;DHT22;9663;48.996;8.334;2023-06-10T08:11:25;27.70;40.00
19060;DHT22;9663;48.996;8.334;2023-06-10T08:13:53;27.80;39.90
19060;DHT22;9663;48.996;8.334;2023-06-10T08:16:19;27.80;39.80
19060;DHT22;9663;48.996;8.334;2023-06-10T08:18:45;27.90;39.90
19060;DHT22;9663;48.996;8.334;2023-06-10T08:21:11;28.00;39.90
19060;DHT22;9663;48.996;8.334;2023-06-10T08:23:36;28.10;39.80
19060;DHT22;9663;48.996;8.334;2023-06-10T08:26:02;28.20;39.60
19060;DHT22;9663;48.996;8.334;2023-06-10T08:28:27;28.30;39.70
19060;DHT22;9663;48.996;8.334;2023-06-10T08:30:53;28.40;39.70
19060;DHT22;9663;48.996;8.334;2023-06-10T08:33:19;28.50;39.50
19060;DHT22;9663;48.996;8.334;2023-06-10T08:35:45;28.50;39.30
19060;DHT22;9663;48.996;8.334;2023-06-10T08:38:10;28.60;39.30
19060;DHT22;9663;48.996;8.334;2023-06-10T08:40:36;28.60;39.30
19060;DHT22;9663;48.996;8.334;2023-06-10T08:43:07;28.70;39.40
19060;DHT22;9663;48.996;8.334;2023-06-10T08:45:36;28.80;39.50
19060;DHT22;9663;48.996;8.334;2023-06-10T08:48:05;28.90;39.40
19060;DHT22;9663;48.996;8.334;2023-06-10T08:50:36;29.10;39.30
19060;DHT22;9663;48.996;8.334;2023-06-10T08:53:05;29.20;39.30
19060;DHT22;9663;48.996;8.334;2023-06-10T08:55:35;29.40;39.40
19060;DHT22;9663;48.996;8.334;2023-06-10T08:58:02;29.50;39.10
19060;DHT22;9663;48.996;8.334;2023-06-10T09:00:29;29.60;39.00
19060;DHT22;9663;48.996;8.334;2023-06-10T09:02:57;29.80;38.80
19060;DHT22;9663;48.996;8.334;2023-06-10T09:05:24;29.80;38.70
19060;DHT22;9663;48.996;8.334;2023-06-10T09:07:52;29.90;38.60
19060;DHT22;9663;48.996;8.334;2023-06-10T09:10:19;30.00;38.60
19060;DHT22;9663;48.996;8.334;2023-06-10T09:12:45;30.10;38.40
19060;DHT22;9663;48.996;8.334;2023-06-10T09:15:10;30.10;38.30
19060;DHT22;9663;48.996;8.334;2023-06-10T09:17:38;30.20;38.30
19060;DHT22;9663;48.996;8.334;2023-06-10T09:20:09;30.30;38.20
19060;DHT22;9663;48.996;8.334;2023-06-10T09:22:35;30.40;38.30
19060;DHT22;9663;48.996;8.334;2023-06-10T09:25:04;30.40;38.20
19060;DHT22;9663;48.996;8.334;2023-06-10T09:30:33;30.60;37.60
19060;DHT22;9663;48.996;8.334;2023-06-10T09:33:09;30.70;37.70
19060;DHT22;9663;48.996;8.334;2023-06-10T09:35:48;30.80;37.60
19060;DHT22;9663;48.996;8.334;2023-06-10T09:38:20;30.80;37.20
19060;DHT22;9663;48.996;8.334;2023-06-10T09:40:51;30.90;37.40
19060;DHT22;9663;48.996;8.334;2023-06-10T09:43:19;30.90;37.10
19060;DHT22;9663;48.996;8.334;2023-06-10T09:45:48;30.90;37.30
19060;DHT22;9663;48.996;8.334;2023-06-10T09:48:15;31.00;37.20
19060;DHT22;9663;48.996;8.334;2023-06-10T09:50:44;31.10;37.30
19060;DHT22;9663;48.996;8.334;2023-06-10T09:53:11;31.10;37.20
19060;DHT22;9663;48.996;8.334;2023-06-10T09:55:41;31.20;37.20
19060;DHT22;9663;48.996;8.334;2023-06-10T09:58:07;31.30;37.00
19060;DHT22;9663;48.996;8.334;2023-06-10T10:00:34;31.40;37.10
19060;DHT22;9663;48.996;8.334;2023-06-10T10:03:00;31.50;37.00
19060;DHT22;9663;48.996;8.334;2023-06-10T10:05:27;31.60;37.10
19060;DHT22;9663;48.996;8.334;2023-06-10T10:07:53;31.70;36.80
19060;DHT22;9663;48.996;8.334;2023-06-10T10:10:22;31.70;36.70
19060;DHT22;9663;48.996;8.334;2023-06-10T10:12:51;31.80;36.40
19060;DHT22;9663;48.996;8.334;2023-06-10T10:15:21;31.80;36.20
19060;DHT22;9663;48.996;8.334;2023-06-10T10:17:53;31.80;36.30
19060;DHT22;9663;48.996;8.334;2023-06-10T10:20:29;31.80;36.30
19060;DHT22;9663;48.996;8.334;2023-06-10T10:22:57;31.90;36.20
19060;DHT22;9663;48.996;8.334;2023-06-10T10:25:27;31.90;36.40
19060;DHT22;9663;48.996;8.334;2023-06-10T10:30:45;32.20;36.10
19060;DHT22;9663;48.996;8.334;2023-06-10T10:33:34;32.30;35.90
19060;DHT22;9663;48.996;8.334;2023-06-10T10:36:06;32.40;35.60
19060;DHT22;9663;48.996;8.334;2023-06-10T10:38:33;32.40;35.60
19060;DHT22;9663;48.996;8.334;2023-06-10T10:41:01;32.50;35.30
19060;DHT22;9663;48.996;8.334;2023-06-10T10:43:30;32.50;35.40
19060;DHT22;9663;48.996;8.334;2023-06-10T10:46:00;32.50;35.30
19060;DHT22;9663;48.996;8.334;2023-06-10T10:48:37;32.60;35.30
19060;DHT22;9663;48.996;8.334;2023-06-10T10:51:03;32.70;35.20
19060;DHT22;9663;48.996;8.334;2023-06-10T10:53:29;32.80;35.50
19060;DHT22;9663;48.996;8.334;2023-06-10T10:56:15;33.00;35.20
19060;DHT22;9663;48.996;8.334;2023-06-10T10:59:04;33.10;34.60
19060;DHT22;9663;48.996;8.334;2023-06-10T11:01:41;33.10;34.00
19060;DHT22;9663;48.996;8.334;2023-06-10T11:04:12;33.20;34.30
19060;DHT22;9663;48.996;8.334;2023-06-10T11:06:38;33.30;34.60
19060;DHT22;9663;48.996;8.334;2023-06-10T11:09:28;33.50;34.40
19060;DHT22;9663;48.996;8.334;2023-06-10T11:11:57;33.50;33.60
19060;DHT22;9663;48.996;8.334;2023-06-10T11:14:28;33.60;33.90
19060;DHT22;9663;48.996;8.334;2023-06-10T11:16:57;33.80;34.20
19060;DHT22;9663;48.996;8.334;2023-06-10T11:19:33;33.90;33.90
19060;DHT22;9663;48.996;8.334;2023-06-10T11:22:02;34.00;33.20
19060;DHT22;9663;48.996;8.334;2023-06-10T11:24:30;34.20;33.80
19060;DHT22;9663;48.996;8.334;2023-06-10T11:27:18;34.30;33.80
19060;DHT22;9663;48.996;8.334;2023-06-10T11:32:30;35.30;33.00
19060;DHT22;9663;48.996;8.334;2023-06-10T11:34:57;35.80;33.30
19060;DHT22;9663;48.996;8.334;2023-06-10T11:37:23;36.30;33.30
19060;DHT22;9663;48.996;8.334;2023-06-10T11:39:55;36.80;33.10
19060;DHT22;9663;48.996;8.334;2023-06-10T11:42:24;37.30;32.00
19060;DHT22;9663;48.996;8.334;2023-06-10T11:44:51;37.80;31.40
19060;DHT22;9663;48.996;8.334;2023-06-10T11:47:19;38.10;31.20
19060;DHT22;9663;48.996;8.334;2023-06-10T11:49:46;38.40;30.90
19060;DHT22;9663;48.996;8.334;2023-06-10T11:52:29;38.80;30.70
19060;DHT22;9663;48.996;8.334;2023-06-10T11:55:03;39.10;29.70
19060;DHT22;9663;48.996;8.334;2023-06-10T11:57:34;39.40;29.70
19060;DHT22;9663;48.996;8.334;2023-06-10T12:00:05;39.50;29.20
19060;DHT22;9663;48.996;8.334;2023-06-10T12:02:31;39.60;28.70
19060;DHT22;9663;48.996;8.334;2023-06-10T12:05:12;39.50;28.90
19060;DHT22;9663;48.996;8.334;2023-06-10T12:07:38;39.50;28.50
19060;DHT22;9663;48.996;8.334;2023-06-10T12:10:04;39.80;29.30
19060;DHT22;9663;48.996;8.334;2023-06-10T12:12:30;40.20;29.00
19060;DHT22;9663;48.996;8.334;2023-06-10T12:14:57;40.60;28.60
19060;DHT22;9663;48.996;8.334;2023-06-10T12:17:44;41.00;28.30
19060;DHT22;9663;48.996;8.334;2023-06-10T12:20:29;41.40;27.70
19060;DHT22;9663;48.996;8.334;2023-06-10T12:22:59;41.80;27.20
19060;DHT22;9663;48.996;8.334;2023-06-10T12:25:29;42.20;27.60
19060;DHT22;9663;48.996;8.334;2023-06-10T12:27:57;42.50;27.10
19060;DHT22;9663;48.996;8.334;2023-06-10T12:30:27;42.80;26.70
19060;DHT22;9663;48.996;8.334;2023-06-10T12:32:54;43.00;26.70
19060;DHT22;9663;48.996;8.334;2023-06-10T12:35:22;43.20;26.30
19060;DHT22;9663;48.996;8.334;2023-06-10T12:38:05;43.40;26.10
19060;DHT22;9663;48.996;8.334;2023-06-10T12:40:37;43.60;25.00
19060;DHT22;9663;48.996;8.334;2023-06-10T12:43:06;43.70;25.30
19060;DHT22;9663;48.996;8.334;2023-06-10T12:45:36;43.80;25.30
19060;DHT22;9663;48.996;8.334;2023-06-10T12:50:44;44.30;25.10
19060;DHT22;9663;48.996;8.334;2023-06-10T12:53:11;44.50;24.00
19060;DHT22;9663;48.996;8.334;2023-06-10T12:55:37;44.70;24.50
19060;DHT22;9663;48.996;8.334;2023-06-10T12:58:04;44.90;24.20
19060;DHT22;9663;48.996;8.334;2023-06-10T13:00:30;45.00;23.90
19060;DHT22;9663;48.996;8.334;2023-06-10T13:03:00;45.10;23.80
19060;DHT22;9663;48.996;8.334;2023-06-10T13:05:27;45.30;23.20
19060;DHT22;9663;48.996;8.334;2023-06-10T13:07:54;45.40;23.40
19060;DHT22;9663;48.996;8.334;2023-06-10T13:10:21;45.50;23.20
19060;DHT22;9663;48.996;8.334;2023-06-10T13:12:47;45.70;23.10
19060;DHT22;9663;48.996;8.334;2023-06-10T13:15:14;45.80;22.90
19060;DHT22;9663;48.996;8.334;2023-06-10T13:17:43;45.90;22.50
19060;DHT22;9663;48.996;8.334;2023-06-10T13:20:10;46.00;22.40
19060;DHT22;9663;48.996;8.334;2023-06-10T13:22:36;46.10;22.40
19060;DHT22;9663;48.996;8.334;2023-06-10T13:25:03;46.20;22.20
19060;DHT22;9663;48.996;8.334;2023-06-10T13:27:30;46.00;21.40
19060;DHT22;9663;48.996;8.334;2023-06-10T13:29:56;45.50;21.00
19060;DHT22;9663;48.996;8.334;2023-06-10T13:32:22;44.80;20.90
19060;DHT22;9663;48.996;8.334;2023-06-10T13:34:47;44.20;21.40
19060;DHT22;9663;48.996;8.334;2023-06-10T13:37:14;44.00;21.80
19060;DHT22;9663;48.996;8.334;2023-06-10T13:39:43;43.90;22.00
19060;DHT22;9663;48.996;8.334;2023-06-10T13:42:09;44.20;22.20
19060;DHT22;9663;48.996;8.334;2023-06-10T13:44:34;44.40;21.90
19060;DHT22;9663;48.996;8.334;2023-06-10T13:47:02;44.70;21.80
19060;DHT22;9663;48.996;8.334;2023-06-10T13:49:28;44.80;21.20
19060;DHT22;9663;48.996;8.334;2023-06-10T13:51:54;44.80;21.00
19060;DHT22;9663;48.996;8.334;2023-06-10T13:54:20;44.70;20.90
19060;DHT22;9663;48.996;8.334;2023-06-10T13:56:46;44.30;20.80
19060;DHT22;9663;48.996;8.334;2023-06-10T13:59:12;44.00;20.80
19060;DHT22;9663;48.996;8.334;2023-06-10T14:01:38;43.60;20.80
19060;DHT22;9663;48.996;8.334;2023-06-10T14:04:06;43.30;20.90
19060;DHT22;9663;48.996;8.334;2023-06-10T14:06:33;43.10;21.20
19060;DHT22;9663;48.996;8.334;2023-06-10T14:08:59;43.00;21.30
19060;DHT22;9663;48.996;8.334;2023-06-10T14:11:25;42.70;21.00
19060;DHT22;9663;48.996;8.334;2023-06-10T14:13:51;42.50;21.00
19060;DHT22;9663;48.996;8.334;2023-06-10T14:16:17;42.30;21.10
19060;DHT22;9663;48.996;8.334;2023-06-10T14:18:43;42.10;21.40
19060;DHT22;9663;48.996;8.334;2023-06-10T14:21:08;42.00;21.50
19060;DHT22;9663;48.996;8.334;2023-06-10T14:23:34;42.00;21.60
19060;DHT22;9663;48.996;8.334;2023-06-10T14:26:00;42.10;21.60
19060;DHT22;9663;48.996;8.334;2023-06-10T14:28:27;42.30;21.50
19060;DHT22;9663;48.996;8.334;2023-06-10T14:30:54;42.60;21.50
19060;DHT22;9663;48.996;8.334;2023-06-10T14:33:20;42.90;21.40
19060;DHT22;9663;48.996;8.334;2023-06-10T14:35:45;43.30;21.30
19060;DHT22;9663;48.996;8.334;2023-06-10T14:38:11;43.60;21.30
19060;DHT22;9663;48.996;8.334;2023-06-10T14:40:37;43.90;20.80
19060;DHT22;9663;48.996;8.334;2023-06-10T14:43:03;44.20;20.90
19060;DHT22;9663;48.996;8.334;2023-06-10T14:45:37;44.30;20.80
19060;DHT22;9663;48.996;8.334;2023-06-10T14:48:04;44.40;20.70
19060;DHT22;9663;48.996;8.334;2023-06-10T14:50:30;44.40;20.50
19060;DHT22;9663;48.996;8.334;2023-06-10T14:52:56;44.50;20.20
19060;DHT22;9663;48.996;8.334;2023-06-10T14:55:21;44.50;20.00
19060;DHT22;9663;48.996;8.334;2023-06-10T14:57:48;44.50;20.00
19060;DHT22;9663;48.996;8.334;2023-06-10T15:00:14;44.60;20.30
19060;DHT22;9663;48.996;8.334;2023-06-10T15:02:42;44.90;20.30
19060;DHT22;9663;48.996;8.334;2023-06-10T15:05:08;45.20;20.10
19060;DHT22;9663;48.996;8.334;2023-06-10T15:07:34;45.50;20.00
19060;DHT22;9663;48.996;8.334;2023-06-10T15:10:00;45.70;20.00
19060;DHT22;9663;48.996;8.334;2023-06-10T15:12:25;46.00;19.90
19060;DHT22;9663;48.996;8.334;2023-06-10T15:14:53;46.50;19.90
19060;DHT22;9663;48.996;8.334;2023-06-10T15:17:18;46.80;19.60
19060;DHT22;9663;48.996;8.334;2023-06-10T15:19:44;47.10;19.10
19060;DHT22;9663;48.996;8.334;2023-06-10T15:22:09;47.30;18.90
19060;DHT22;9663;48.996;8.334;2023-06-10T15:24:37;47.60;18.80
19060;DHT22;9663;48.996;8.334;2023-06-10T15:27:02;47.80;18.80
19060;DHT22;9663;48.996;8.334;2023-06-10T15:29:28;48.00;18.60
19060;DHT22;9663;48.996;8.334;2023-06-10T15:31:54;48.30;18.50
19060;DHT22;9663;48.996;8.334;2023-06-10T15:34:19;48.40;18.30
19060;DHT22;9663;48.996;8.334;2023-06-10T15:36:45;48.50;17.90
19060;DHT22;9663;48.996;8.334;2023-06-10T15:39:11;48.60;17.70
19060;DHT22;9663;48.996;8.334;2023-06-10T15:41:36;48.60;17.60
19060;DHT22;9663;48.996;8.334;2023-06-10T15:44:02;48.70;17.50
19060;DHT22;9663;48.996;8.334;2023-06-10T15:46:29;48.60;17.30
19060;DHT22;9663;48.996;8.334;2023-06-10T15:48:56;48.50;17.30
19060;DHT22;9663;48.996;8.334;2023-06-10T15:51:23;48.50;17.10
19060;DHT22;9663;48.996;8.334;2023-06-10T15:53:48;48.50;17.10
19060;DHT22;9663;48.996;8.334;2023-06-10T15:56:15;48.40;16.80
19060;DHT22;9663;48.996;8.334;2023-06-10T15:58:41;48.30;17.00
19060;DHT22;9663;48.996;8.334;2023-06-10T16:01:07;48.30;17.20